createdAt,value
2022-09-17T00:02:15.666Z,10.99
2022-09-17T00:04:45.376Z,11.02
2022-09-17T00:07:14.357Z,10.95
2022-09-17T00:09:43.522Z,10.87
2022-09-17T00:12:13.146Z,10.88
2022-09-17T00:14:44.777Z,10.94
2022-09-17T00:17:14.571Z,10.97
2022-09-17T00:19:42.937Z,10.83
2022-09-17T00:22:11.302Z,10.86
2022-09-17T00:24:39.521Z,10.87
2022-09-17T00:27:07.610Z,10.94
2022-09-17T00:29:37.895Z,10.80
2022-09-17T00:32:06.277Z,10.86
2022-09-17T00:34:36.046Z,10.84
2022-09-17T00:37:04.756Z,10.86
2022-09-17T00:39:33.336Z,10.80
2022-09-17T00:42:05.758Z,10.88
2022-09-17T00:44:46.592Z,10.83
2022-09-17T00:47:20.774Z,10.94
2022-09-17T00:49:53.799Z,10.82
2022-09-17T00:52:26.770Z,10.78
2022-09-17T00:55:02.069Z,10.76
2022-09-17T00:57:33.617Z,10.74
2022-09-17T01:00:02.881Z,10.76
2022-09-17T01:02:31.317Z,10.67
2022-09-17T01:05:01.066Z,10.76
2022-09-17T01:08:08.669Z,10.74
2022-09-17T01:11:09.628Z,10.71
2022-09-17T01:13:52.322Z,10.72
2022-09-17T01:16:28.735Z,10.73
2022-09-17T01:19:14.249Z,10.71
2022-09-17T01:21:52.467Z,10.68
2022-09-17T01:24:40.583Z,10.65
2022-09-17T01:27:45.702Z,10.63
2022-09-17T01:30:23.442Z,10.55
2022-09-17T01:32:59.824Z,10.51
2022-09-17T01:35:37.956Z,10.46
2022-09-17T01:38:14.517Z,10.41
2022-09-17T01:40:49.621Z,10.42
2022-09-17T01:43:26.412Z,10.43
2022-09-17T01:45:58.999Z,10.44
2022-09-17T01:48:33.971Z,10.34
2022-09-17T01:51:08.358Z,10.38
2022-09-17T01:53:44.923Z,10.28
2022-09-17T01:56:17.993Z,10.32
2022-09-17T01:58:52.124Z,10.31
2022-09-17T02:01:26.402Z,10.23
2022-09-17T02:04:01.136Z,10.11
2022-09-17T02:06:34.951Z,10.23
2022-09-17T02:09:07.401Z,10.12
2022-09-17T02:11:38.727Z,10.05
2022-09-17T02:14:13.115Z,10.17
2022-09-17T02:16:48.500Z,10.08
2022-09-17T02:19:23.138Z,10.17
2022-09-17T02:22:00.167Z,10.22
2022-09-17T02:24:34.849Z,10.19
2022-09-17T02:27:08.900Z,10.15
2022-09-17T02:29:39.408Z,10.16
2022-09-17T02:32:08.293Z,10.12
2022-09-17T02:34:38.718Z,10.07
2022-09-17T02:37:10.061Z,10.03
2022-09-17T02:39:39.762Z,10.12
2022-09-17T02:42:18.507Z,10.16
2022-09-17T02:45:00.007Z,10.09
2022-09-17T02:47:48.953Z,10.06
2022-09-17T02:50:32.363Z,9.90
2022-09-17T02:53:12.463Z,9.96
2022-09-17T02:55:48.376Z,10.06
2022-09-17T02:58:25.241Z,9.88
2022-09-17T03:00:54.353Z,9.96
2022-09-17T03:03:30.025Z,10.03
2022-09-17T03:06:02.037Z,10.05
2022-09-17T03:08:31.930Z,10.13
2022-09-17T03:11:00.231Z,10.14
2022-09-17T03:13:31.164Z,9.98
2022-09-17T03:15:59.572Z,10.07
2022-09-17T03:18:28.007Z,10.03
2022-09-17T03:20:56.496Z,10.02
2022-09-17T03:23:28.337Z,10.14
2022-09-17T03:25:56.618Z,10.04
2022-09-17T03:28:26.739Z,10.01
2022-09-17T03:30:55.648Z,10.10
2022-09-17T03:33:24.109Z,9.98
2022-09-17T03:35:52.517Z,9.99
2022-09-17T03:38:21.766Z,9.91
2022-09-17T03:41:00.576Z,9.86
2022-09-17T03:43:28.999Z,9.86
2022-09-17T03:45:57.395Z,9.91
2022-09-17T03:48:26.792Z,9.90
2022-09-17T03:50:56.532Z,9.86
2022-09-17T03:53:25.029Z,9.87
2022-09-17T03:55:53.426Z,9.87
2022-09-17T03:58:24.561Z,9.92
2022-09-17T04:00:54.913Z,9.84
2022-09-17T04:03:23.825Z,9.82
2022-09-17T04:05:52.521Z,9.82
2022-09-17T04:08:22.634Z,9.69
2022-09-17T04:10:52.186Z,9.79
2022-09-17T04:13:21.294Z,9.74
2022-09-17T04:15:52.328Z,9.79
2022-09-17T04:18:20.879Z,9.72
2022-09-17T04:20:49.469Z,9.72
2022-09-17T04:23:18.044Z,9.70
2022-09-17T04:25:46.401Z,9.72
2022-09-17T04:28:14.826Z,9.77
2022-09-17T04:30:44.486Z,9.71
2022-09-17T04:33:14.484Z,9.67
2022-09-17T04:35:43.786Z,9.72
2022-09-17T04:38:14.336Z,9.68
2022-09-17T04:40:43.724Z,9.67
2022-09-17T04:43:12.163Z,9.53
2022-09-17T04:45:42.239Z,9.49
2022-09-17T04:48:12.069Z,9.52
2022-09-17T04:50:42.130Z,9.49
2022-09-17T04:53:11.125Z,9.47
2022-09-17T04:55:39.801Z,9.46
2022-09-17T04:58:08.000Z,9.51
2022-09-17T05:00:39.191Z,9.49
2022-09-17T05:03:07.791Z,9.46
2022-09-17T05:05:36.449Z,9.50
2022-09-17T05:08:08.577Z,9.57
2022-09-17T05:10:43.776Z,9.48
2022-09-17T05:13:12.403Z,9.56
2022-09-17T05:15:40.960Z,9.56
2022-09-17T05:18:09.364Z,9.55
2022-09-17T05:20:37.552Z,9.66
2022-09-17T05:23:07.560Z,9.45
2022-09-17T05:25:37.111Z,9.54
2022-09-17T05:28:05.428Z,9.56
2022-09-17T05:30:33.864Z,9.59
2022-09-17T05:33:03.304Z,9.65
2022-09-17T05:35:32.125Z,9.66
2022-09-17T05:38:01.839Z,9.73
2022-09-17T05:40:33.501Z,9.71
2022-09-17T05:43:02.816Z,9.81
2022-09-17T05:45:31.828Z,9.86
2022-09-17T05:48:01.765Z,9.82
2022-09-17T05:50:31.665Z,9.91
2022-09-17T05:53:05.968Z,9.98
2022-09-17T05:55:37.324Z,10.00
2022-09-17T05:58:16.255Z,10.05
2022-09-17T06:00:47.694Z,10.01
2022-09-17T06:03:19.002Z,9.97
2022-09-17T06:05:55.369Z,10.05
2022-09-17T06:08:24.592Z,10.06
2022-09-17T06:10:56.973Z,10.05
2022-09-17T06:13:28.617Z,10.06
2022-09-17T06:15:57.220Z,10.11
2022-09-17T06:18:25.588Z,10.17
2022-09-17T06:20:56.432Z,10.18
2022-09-17T06:23:25.706Z,10.21
2022-09-17T06:25:58.683Z,10.31
2022-09-17T06:28:27.256Z,10.36
2022-09-17T06:30:57.557Z,10.30
2022-09-17T06:33:29.393Z,10.36
2022-09-17T06:36:01.803Z,10.41
2022-09-17T06:38:30.901Z,10.47
2022-09-17T06:41:00.819Z,10.53
2022-09-17T06:43:29.558Z,10.60
2022-09-17T06:45:59.379Z,10.58
2022-09-17T06:48:28.698Z,10.68
2022-09-17T06:50:58.071Z,10.74
2022-09-17T06:53:26.735Z,10.87
2022-09-17T06:56:02.329Z,10.93
2022-09-17T06:58:37.333Z,11.07
2022-09-17T07:01:07.342Z,11.09
2022-09-17T07:03:36.456Z,11.16
2022-09-17T07:06:05.366Z,11.24
2022-09-17T07:08:36.218Z,11.33
2022-09-17T07:11:06.252Z,11.34
2022-09-17T07:13:36.836Z,11.36
2022-09-17T07:16:07.796Z,11.49
2022-09-17T07:18:36.437Z,11.53
2022-09-17T07:21:06.561Z,11.60
2022-09-17T07:23:36.710Z,11.74
2022-09-17T07:26:07.838Z,11.85
2022-09-17T07:28:47.703Z,12.12
2022-09-17T07:31:17.413Z,12.18
2022-09-17T07:33:47.644Z,12.29
2022-09-17T07:36:20.334Z,12.10
2022-09-17T07:38:48.809Z,12.17
2022-09-17T07:41:18.875Z,12.08
2022-09-17T07:43:52.119Z,12.02
2022-09-17T07:46:22.281Z,12.11
2022-09-17T07:48:52.341Z,12.21
2022-09-17T07:51:23.488Z,12.36
2022-09-17T07:53:53.343Z,12.11
2022-09-17T07:56:22.194Z,12.06
2022-09-17T07:58:52.620Z,12.29
2022-09-17T08:01:23.131Z,12.43
2022-09-17T08:03:53.189Z,12.30
2022-09-17T08:06:26.061Z,12.20
2022-09-17T08:08:56.447Z,12.24
2022-09-17T08:11:51.707Z,12.24
2022-09-17T08:14:21.515Z,12.30
2022-09-17T08:16:54.576Z,12.49
2022-09-17T08:19:22.707Z,12.60
2022-09-17T08:21:51.333Z,12.62
2022-09-17T08:24:21.522Z,12.71
2022-09-17T08:26:52.463Z,12.80
2022-09-17T08:29:23.890Z,12.92
2022-09-17T08:31:54.397Z,12.87
2022-09-17T08:34:23.074Z,13.01
2022-09-17T08:36:53.812Z,13.02
2022-09-17T08:39:22.310Z,13.03
2022-09-17T08:41:56.946Z,13.04
2022-09-17T08:44:33.493Z,12.90
2022-09-17T08:47:06.464Z,13.03
2022-09-17T08:49:38.267Z,13.14
2022-09-17T08:52:37.543Z,13.07
2022-09-17T08:55:16.919Z,13.03
2022-09-17T08:57:57.759Z,13.44
2022-09-17T09:00:31.076Z,13.66
2022-09-17T09:03:19.191Z,13.92
2022-09-17T09:05:53.113Z,14.14
2022-09-17T09:08:31.356Z,14.35
2022-09-17T09:11:02.716Z,14.35
2022-09-17T09:13:36.742Z,14.35
2022-09-17T09:16:16.577Z,14.26
2022-09-17T09:18:45.346Z,13.63
2022-09-17T09:21:28.105Z,13.40
2022-09-17T09:24:01.808Z,13.34
2022-09-17T09:26:45.343Z,13.25
2022-09-17T09:29:25.853Z,13.09
2022-09-17T09:32:24.793Z,13.03
2022-09-17T09:34:57.928Z,12.74
2022-09-17T09:37:30.278Z,12.77
2022-09-17T09:40:07.145Z,12.85
2022-09-17T09:42:39.537Z,12.94
2022-09-17T09:45:17.225Z,12.83
2022-09-17T09:51:07.222Z,12.69
2022-09-17T09:53:48.279Z,12.77
2022-09-17T09:56:45.345Z,12.75
2022-09-17T09:59:13.976Z,12.51
2022-09-17T10:01:45.283Z,12.70
2022-09-17T10:04:20.382Z,12.73
2022-09-17T10:06:53.287Z,13.16
2022-09-17T10:09:22.791Z,13.31
2022-09-17T10:12:03.582Z,13.61
2022-09-17T10:14:33.492Z,13.93
2022-09-17T10:17:19.739Z,14.02
2022-09-17T10:19:49.456Z,14.41
2022-09-17T10:22:27.322Z,14.78
2022-09-17T10:24:57.767Z,15.07
2022-09-17T10:27:28.769Z,15.18
2022-09-17T10:30:04.660Z,15.04
2022-09-17T10:32:34.701Z,15.02
2022-09-17T10:35:06.074Z,14.93
2022-09-17T10:37:44.851Z,14.71
2022-09-17T10:40:30.242Z,14.51
2022-09-17T10:43:24.097Z,14.29
2022-09-17T10:46:02.518Z,14.37
2022-09-17T10:48:37.944Z,15.05
2022-09-17T10:51:09.045Z,15.56
2022-09-17T10:54:09.848Z,15.83
2022-09-17T10:56:44.869Z,15.61
2022-09-17T10:59:46.801Z,15.85
2022-09-17T11:02:49.710Z,15.46
2022-09-17T11:05:38.371Z,15.04
2022-09-17T11:08:15.407Z,15.39
2022-09-17T11:11:00.301Z,15.77
2022-09-17T11:13:39.791Z,15.88
2022-09-17T11:16:22.070Z,15.77
2022-09-17T11:19:01.090Z,16.17
2022-09-17T11:21:50.684Z,16.31
2022-09-17T11:24:50.295Z,15.71
2022-09-17T11:27:36.361Z,15.15
2022-09-17T11:30:11.931Z,14.83
2022-09-17T11:33:02.611Z,15.18
2022-09-17T11:35:34.918Z,15.53
2022-09-17T11:38:10.233Z,15.74
2022-09-17T11:40:44.567Z,15.92
2022-09-17T11:43:29.105Z,16.24
2022-09-17T11:46:03.014Z,16.85
2022-09-17T11:48:36.856Z,16.87
2022-09-17T11:51:21.647Z,16.77
2022-09-17T11:53:57.134Z,16.54
2022-09-17T11:56:28.762Z,16.49
2022-09-17T11:59:03.882Z,16.27
2022-09-17T12:01:39.479Z,16.37
2022-09-17T12:04:26.473Z,16.01
2022-09-17T12:07:01.754Z,15.48
2022-09-17T12:09:39.208Z,15.06
2022-09-17T12:12:37.802Z,14.82
2022-09-17T12:15:15.457Z,15.39
2022-09-17T12:17:50.536Z,15.58
2022-09-17T12:20:28.696Z,15.69
2022-09-17T12:23:00.270Z,15.66
2022-09-17T12:25:37.351Z,15.63
2022-09-17T12:28:14.027Z,15.71
2022-09-17T12:30:51.226Z,15.80
2022-09-17T12:33:27.614Z,16.36
2022-09-17T12:36:11.294Z,16.76
2022-09-17T12:39:02.663Z,16.67
2022-09-17T12:41:43.382Z,16.58
2022-09-17T12:44:41.233Z,16.39
2022-09-17T12:47:34.967Z,16.20
2022-09-17T12:50:16.232Z,15.84
2022-09-17T12:53:00.448Z,15.32
2022-09-17T12:55:45.458Z,15.26
2022-09-17T12:58:28.811Z,15.51
2022-09-17T13:01:03.997Z,15.42
2022-09-17T13:03:38.901Z,16.21
2022-09-17T13:06:40.443Z,17.17
2022-09-17T13:09:39.455Z,17.03
2022-09-17T13:12:34.081Z,16.95
2022-09-17T13:15:24.748Z,17.07
2022-09-17T13:18:13.227Z,17.42
2022-09-17T13:21:03.767Z,17.48
2022-09-17T13:23:40.480Z,17.33
2022-09-17T13:26:10.797Z,16.88
2022-09-17T13:28:47.726Z,15.95
2022-09-17T13:31:23.055Z,15.20
2022-09-17T13:34:01.824Z,14.75
2022-09-17T13:36:41.304Z,14.29
2022-09-17T13:39:13.427Z,13.63
2022-09-17T13:41:44.111Z,13.58
2022-09-17T13:44:13.518Z,13.41
2022-09-17T13:46:41.785Z,13.52
2022-09-17T13:49:17.407Z,13.48
2022-09-17T13:51:54.823Z,13.33
2022-09-17T13:54:37.710Z,13.22
2022-09-17T13:57:20.359Z,13.41
2022-09-17T14:00:01.583Z,13.77
2022-09-17T14:02:39.416Z,14.13
2022-09-17T14:05:49.687Z,14.61
2022-09-17T14:08:50.335Z,15.09
2022-09-17T14:11:41.607Z,15.25
2022-09-17T14:14:42.726Z,14.73
2022-09-17T14:17:12.399Z,15.03
2022-09-17T14:19:51.503Z,15.02
2022-09-17T14:22:26.996Z,14.32
2022-09-17T14:24:58.413Z,14.40
2022-09-17T14:27:56.523Z,14.44
2022-09-17T14:30:30.885Z,14.78
2022-09-17T14:33:09.076Z,14.51
2022-09-17T14:35:40.782Z,14.07
2022-09-17T14:38:15.582Z,13.69
2022-09-17T14:41:03.135Z,13.51
2022-09-17T14:43:44.230Z,13.42
2022-09-17T14:46:21.348Z,13.67
2022-09-17T14:48:52.187Z,14.15
2022-09-17T14:51:30.182Z,14.66
2022-09-17T14:54:23.933Z,14.38
2022-09-17T14:57:26.935Z,14.42
2022-09-17T14:59:58.928Z,14.96
2022-09-17T15:02:35.638Z,14.83
2022-09-17T15:05:17.740Z,14.85
2022-09-17T15:07:47.244Z,14.63
2022-09-17T15:10:20.785Z,14.32
2022-09-17T15:12:58.732Z,14.00
2022-09-17T15:15:32.350Z,14.02
2022-09-17T15:18:01.834Z,14.56
2022-09-17T15:20:33.924Z,15.03
2022-09-17T15:23:12.604Z,14.51
2022-09-17T15:25:43.003Z,14.35
2022-09-17T15:28:21.858Z,15.02
2022-09-17T15:30:53.377Z,15.51
2022-09-17T15:33:26.785Z,15.61
2022-09-17T15:36:23.777Z,15.74
2022-09-17T15:38:54.727Z,15.68
2022-09-17T15:41:37.847Z,15.69
2022-09-17T15:44:30.805Z,15.78
2022-09-17T15:47:33.643Z,15.06
2022-09-17T15:50:18.421Z,14.14
2022-09-17T15:52:47.394Z,14.17
2022-09-17T15:55:39.174Z,13.86
2022-09-17T15:58:28.144Z,13.74
2022-09-17T16:01:34.274Z,13.60
2022-09-17T16:04:27.450Z,13.06
2022-09-17T16:07:17.975Z,12.82
2022-09-17T16:09:49.206Z,12.81
2022-09-17T16:12:22.945Z,12.70
2022-09-17T16:14:53.578Z,12.71
2022-09-17T16:17:39.586Z,12.78
2022-09-17T16:20:18.522Z,12.71
2022-09-17T16:22:48.458Z,12.76
2022-09-17T16:25:17.082Z,12.73
2022-09-17T16:27:51.191Z,12.57
2022-09-17T16:30:22.206Z,12.55
2022-09-17T16:32:50.895Z,12.53
2022-09-17T16:35:22.945Z,12.50
2022-09-17T16:37:51.286Z,12.45
2022-09-17T16:40:20.090Z,12.40
2022-09-17T16:42:50.729Z,12.36
2022-09-17T16:45:20.552Z,12.33
2022-09-17T16:47:50.307Z,12.86
2022-09-17T16:50:21.496Z,13.66
2022-09-17T16:52:50.552Z,13.93
2022-09-17T16:55:20.123Z,14.09
2022-09-17T16:57:48.720Z,14.37
2022-09-17T17:00:21.702Z,14.14
2022-09-17T17:02:55.178Z,13.76
2022-09-17T17:05:28.025Z,13.71
2022-09-17T17:07:56.802Z,13.46
2022-09-17T17:10:27.536Z,13.35
2022-09-17T17:13:03.764Z,13.16
2022-09-17T17:15:32.469Z,12.85
2022-09-17T17:18:05.975Z,12.69
2022-09-17T17:20:38.792Z,12.44
2022-09-17T17:23:07.225Z,12.18
2022-09-17T17:25:35.582Z,12.00
2022-09-17T17:28:14.538Z,11.92
2022-09-17T17:30:44.458Z,11.70
2022-09-17T17:33:13.691Z,11.55
2022-09-17T17:35:48.012Z,11.54
2022-09-17T17:38:18.745Z,11.49
2022-09-17T17:40:47.929Z,11.42
2022-09-17T17:43:20.965Z,11.43
2022-09-17T17:45:53.343Z,11.27
2022-09-17T17:48:22.904Z,11.25
2022-09-17T17:50:56.497Z,11.26
2022-09-17T17:53:27.017Z,11.14
2022-09-17T17:55:59.640Z,11.06
2022-09-17T17:58:30.491Z,11.05
2022-09-17T18:00:59.626Z,11.04
2022-09-17T18:03:28.330Z,11.05
2022-09-17T18:06:00.979Z,11.00
2022-09-17T18:08:29.264Z,11.01
2022-09-17T18:11:03.585Z,10.99
2022-09-17T18:13:36.009Z,10.98
2022-09-17T18:16:06.261Z,10.97
2022-09-17T18:18:39.731Z,10.87
2022-09-17T18:21:13.499Z,10.90
2022-09-17T18:23:42.533Z,10.95
2022-09-17T18:26:15.241Z,11.00
2022-09-17T18:28:44.617Z,10.91
2022-09-17T18:31:22.206Z,10.88
2022-09-17T18:33:55.579Z,10.88
2022-09-17T18:36:27.378Z,10.88
2022-09-17T18:39:03.569Z,10.86
2022-09-17T18:41:40.972Z,10.81
2022-09-17T18:44:10.212Z,10.74
2022-09-17T18:46:39.230Z,10.78
2022-09-17T18:49:07.833Z,10.77
2022-09-17T18:51:39.433Z,10.76
2022-09-17T18:54:10.647Z,10.71
2022-09-17T18:56:40.607Z,10.72
2022-09-17T18:59:09.364Z,10.69
2022-09-17T19:01:38.060Z,10.62
2022-09-17T19:04:07.961Z,10.41
2022-09-17T19:06:37.755Z,10.42
2022-09-17T19:09:06.824Z,10.31
2022-09-17T19:11:36.361Z,10.34
2022-09-17T19:14:04.640Z,10.36
2022-09-17T19:16:32.876Z,10.43
2022-09-17T19:19:01.635Z,10.42
2022-09-17T19:21:30.251Z,10.35
2022-09-17T19:24:00.552Z,10.26
2022-09-17T19:26:29.558Z,10.36
2022-09-17T19:29:00.548Z,10.34
2022-09-17T19:31:30.127Z,10.28
2022-09-17T19:33:59.883Z,10.18
2022-09-17T19:36:28.472Z,10.08
2022-09-17T19:38:58.806Z,10.08
2022-09-17T19:41:29.024Z,10.12
2022-09-17T19:43:57.466Z,10.06
2022-09-17T19:46:27.507Z,10.13
2022-09-17T19:48:57.956Z,9.92
2022-09-17T19:51:28.487Z,10.03
2022-09-17T19:53:58.410Z,10.08
2022-09-17T19:56:29.650Z,10.14
2022-09-17T19:58:58.178Z,10.03
2022-09-17T20:01:26.642Z,10.03
2022-09-17T20:03:55.202Z,9.96
2022-09-17T20:06:24.604Z,9.95
2022-09-17T20:08:56.306Z,10.00
2022-09-17T20:11:26.951Z,9.99
2022-09-17T20:14:07.150Z,10.00
2022-09-17T20:16:45.429Z,9.99
2022-09-17T20:19:16.966Z,9.95
2022-09-17T20:21:50.119Z,9.99
2022-09-17T20:24:20.002Z,10.03
2022-09-17T20:26:48.409Z,9.96
2022-09-17T20:29:18.662Z,9.93
2022-09-17T20:31:47.520Z,9.85
2022-09-17T20:34:16.148Z,9.81
2022-09-17T20:36:44.427Z,9.88
2022-09-17T20:39:18.178Z,9.93
2022-09-17T20:41:50.308Z,9.81
2022-09-17T20:44:21.093Z,9.92
2022-09-17T20:46:49.656Z,9.86
2022-09-17T20:49:18.151Z,10.03
2022-09-17T20:51:49.289Z,9.93
2022-09-17T20:54:17.887Z,9.90
2022-09-17T20:56:46.693Z,9.94
2022-09-17T20:59:18.830Z,9.95
2022-09-17T21:01:50.568Z,9.95
2022-09-17T21:04:21.364Z,10.03
2022-09-17T21:06:55.459Z,9.87
2022-09-17T21:09:23.898Z,9.92
2022-09-17T21:11:53.637Z,9.90
2022-09-17T21:14:21.825Z,10.04
2022-09-17T21:16:51.981Z,9.98
2022-09-17T21:19:23.287Z,10.13
2022-09-17T21:21:55.856Z,10.18
2022-09-17T21:24:24.973Z,10.26
2022-09-17T21:26:54.488Z,10.29
2022-09-17T21:29:22.908Z,10.45
2022-09-17T21:31:53.460Z,10.44
2022-09-17T21:34:22.542Z,10.40
2022-09-17T21:36:51.680Z,10.40
2022-09-17T21:39:20.403Z,10.43
2022-09-17T21:41:50.203Z,10.50
2022-09-17T21:44:19.292Z,10.42
2022-09-17T21:46:47.482Z,10.40
2022-09-17T21:49:17.587Z,10.43
2022-09-17T21:51:50.873Z,10.34
2022-09-17T21:54:19.578Z,10.44
2022-09-17T21:56:48.376Z,10.34
2022-09-17T21:59:17.783Z,10.27
2022-09-17T22:01:47.635Z,10.39
2022-09-17T22:04:19.110Z,10.40
2022-09-17T22:06:49.455Z,10.30
2022-09-17T22:09:21.129Z,10.43
2022-09-17T22:11:50.052Z,10.29
2022-09-17T22:14:23.047Z,10.50
2022-09-17T22:16:54.342Z,10.51
2022-09-17T22:19:25.646Z,10.56
2022-09-17T22:21:56.010Z,10.45
2022-09-17T22:24:25.375Z,10.53
2022-09-17T22:26:58.255Z,10.59
2022-09-17T22:29:28.473Z,10.43
2022-09-17T22:31:57.472Z,10.39
2022-09-17T22:34:27.213Z,10.45
2022-09-17T22:36:55.263Z,10.49
2022-09-17T22:39:23.624Z,10.39
2022-09-17T22:41:51.850Z,10.25
2022-09-17T22:44:21.182Z,10.24
2022-09-17T22:46:50.969Z,10.37
2022-09-17T22:49:20.364Z,10.30
2022-09-17T22:51:50.318Z,10.44
2022-09-17T22:54:20.317Z,10.42
2022-09-17T22:56:50.461Z,10.29
2022-09-17T22:59:19.669Z,10.36
2022-09-17T23:01:48.092Z,10.41
2022-09-17T23:04:16.679Z,10.41
2022-09-17T23:06:45.991Z,10.38
2022-09-17T23:09:17.623Z,10.41
2022-09-17T23:11:45.953Z,10.40
2022-09-17T23:14:17.832Z,10.28
2022-09-17T23:16:48.835Z,10.10
2022-09-17T23:19:19.215Z,10.27
2022-09-17T23:21:48.145Z,10.03
2022-09-17T23:24:20.485Z,9.99
2022-09-17T23:26:49.475Z,10.09
2022-09-17T23:29:19.857Z,10.12
2022-09-17T23:31:48.000Z,10.00
2022-09-17T23:34:16.348Z,9.96
2022-09-17T23:36:45.049Z,9.94
2022-09-17T23:39:13.423Z,10.05
2022-09-17T23:41:45.739Z,10.18
2022-09-17T23:44:16.242Z,9.93
2022-09-17T23:46:48.360Z,10.10
2022-09-17T23:49:17.176Z,10.08
2022-09-17T23:51:46.028Z,10.12
2022-09-17T23:54:14.665Z,10.21
2022-09-17T23:56:44.432Z,10.29
2022-09-17T23:59:14.048Z,10.35
